sensor_id;sensor_type;location;lat;lon;timestamp;temperature;humidity
78461;SHT31;67755;51.986;5.696;2024-01-27T00:00:03;8.0;61.0
78461;SHT31;67755;51.986;5.696;2024-01-27T00:02:31;8.0;61.2
78461;SHT31;67755;51.986;5.696;2024-01-27T00:05:00;8.0;61.5
78461;SHT31;67755;51.986;5.696;2024-01-27T00:07:28;8.0;61.5
78461;SHT31;67755;51.986;5.696;2024-01-27T00:09:57;8.0;61.5
78461;SHT31;67755;51.986;5.696;2024-01-27T00:12:26;8.0;61.3
78461;SHT31;67755;51.986;5.696;2024-01-27T00:14:55;8.0;61.2
78461;SHT31;67755;51.986;5.696;2024-01-27T00:17:23;7.9;61.2
78461;SHT31;67755;51.986;5.696;2024-01-27T00:19:54;7.9;61.1
78461;SHT31;67755;51.986;5.696;2024-01-27T00:22:24;7.9;61.3
78461;SHT31;67755;51.986;5.696;2024-01-27T00:24:52;7.9;61.2
78461;SHT31;67755;51.986;5.696;2024-01-27T00:27:21;7.9;61.1
78461;SHT31;67755;51.986;5.696;2024-01-27T00:29:49;7.9;61.1
78461;SHT31;67755;51.986;5.696;2024-01-27T00:32:18;7.9;61.1
78461;SHT31;67755;51.986;5.696;2024-01-27T00:34:46;7.9;61.0
78461;SHT31;67755;51.986;5.696;2024-01-27T00:37:14;7.9;61.5
78461;SHT31;67755;51.986;5.696;2024-01-27T00:39:44;7.9;61.7
78461;SHT31;67755;51.986;5.696;2024-01-27T00:42:14;7.9;61.6
78461;SHT31;67755;51.986;5.696;2024-01-27T00:44:42;7.9;61.5
78461;SHT31;67755;51.986;5.696;2024-01-27T00:47:11;7.9;61.3
78461;SHT31;67755;51.986;5.696;2024-01-27T00:49:39;7.8;61.1
78461;SHT31;67755;51.986;5.696;2024-01-27T00:52:07;7.8;60.9
78461;SHT31;67755;51.986;5.696;2024-01-27T00:54:36;7.8;60.9
78461;SHT31;67755;51.986;5.696;2024-01-27T00:57:05;7.8;60.7
78461;SHT31;67755;51.986;5.696;2024-01-27T00:59:35;7.8;60.8
78461;SHT31;67755;51.986;5.696;2024-01-27T01:02:04;7.8;60.9
78461;SHT31;67755;51.986;5.696;2024-01-27T01:04:36;7.8;60.7
78461;SHT31;67755;51.986;5.696;2024-01-27T01:07:05;7.8;60.9
78461;SHT31;67755;51.986;5.696;2024-01-27T01:09:35;7.8;60.9
78461;SHT31;67755;51.986;5.696;2024-01-27T01:12:04;7.7;61.4
78461;SHT31;67755;51.986;5.696;2024-01-27T01:14:33;7.7;61.0
78461;SHT31;67755;51.986;5.696;2024-01-27T01:17:03;7.7;61.0
78461;SHT31;67755;51.986;5.696;2024-01-27T01:19:31;7.7;61.2
78461;SHT31;67755;51.986;5.696;2024-01-27T01:21:59;7.7;61.2
78461;SHT31;67755;51.986;5.696;2024-01-27T01:24:29;7.7;61.1
78461;SHT31;67755;51.986;5.696;2024-01-27T01:26:58;7.7;61.0
78461;SHT31;67755;51.986;5.696;2024-01-27T01:29:26;7.6;60.9
78461;SHT31;67755;51.986;5.696;2024-01-27T01:31:55;7.6;60.8
78461;SHT31;67755;51.986;5.696;2024-01-27T01:34:23;7.6;60.6
78461;SHT31;67755;51.986;5.696;2024-01-27T01:36:53;7.6;60.6
78461;SHT31;67755;51.986;5.696;2024-01-27T01:39:25;7.6;60.6
78461;SHT31;67755;51.986;5.696;2024-01-27T01:41:54;7.6;60.5
78461;SHT31;67755;51.986;5.696;2024-01-27T01:44:24;7.6;60.6
78461;SHT31;67755;51.986;5.696;2024-01-27T01:46:58;7.6;60.5
78461;SHT31;67755;51.986;5.696;2024-01-27T01:49:27;7.6;60.6
78461;SHT31;67755;51.986;5.696;2024-01-27T01:51:55;7.5;60.8
78461;SHT31;67755;51.986;5.696;2024-01-27T01:54:24;7.5;60.9
78461;SHT31;67755;51.986;5.696;2024-01-27T02:33:22;8.1;57.9
78461;SHT31;67755;51.986;5.696;2024-01-27T02:35:50;8.0;57.8
78461;SHT31;67755;51.986;5.696;2024-01-27T02:38:18;8.0;58.0
78461;SHT31;67755;51.986;5.696;2024-01-27T02:40:47;8.0;57.6
78461;SHT31;67755;51.986;5.696;2024-01-27T02:43:15;7.9;57.8
78461;SHT31;67755;51.986;5.696;2024-01-27T02:45:44;7.9;58.2
78461;SHT31;67755;51.986;5.696;2024-01-27T02:48:13;7.8;58.2
78461;SHT31;67755;51.986;5.696;2024-01-27T02:50:41;7.8;58.2
78461;SHT31;67755;51.986;5.696;2024-01-27T02:53:10;7.7;58.4
78461;SHT31;67755;51.986;5.696;2024-01-27T02:55:38;7.7;58.7
78461;SHT31;67755;51.986;5.696;2024-01-27T02:58:07;7.6;58.6
78461;SHT31;67755;51.986;5.696;2024-01-27T03:00:35;7.6;58.7
78461;SHT31;67755;51.986;5.696;2024-01-27T03:03:04;7.6;59.0
78461;SHT31;67755;51.986;5.696;2024-01-27T03:05:33;7.5;58.8
78461;SHT31;67755;51.986;5.696;2024-01-27T03:08:01;7.5;58.9
78461;SHT31;67755;51.986;5.696;2024-01-27T03:10:30;7.4;59.1
78461;SHT31;67755;51.986;5.696;2024-01-27T03:12:58;7.4;59.1
78461;SHT31;67755;51.986;5.696;2024-01-27T03:15:27;7.4;59.7
78461;SHT31;67755;51.986;5.696;2024-01-27T03:17:55;7.3;59.7
78461;SHT31;67755;51.986;5.696;2024-01-27T03:20:24;7.3;59.8
78461;SHT31;67755;51.986;5.696;2024-01-27T03:22:54;7.3;60.0
78461;SHT31;67755;51.986;5.696;2024-01-27T03:25:22;7.2;60.0
78461;SHT31;67755;51.986;5.696;2024-01-27T03:27:52;7.2;60.2
78461;SHT31;67755;51.986;5.696;2024-01-27T03:30:20;7.2;60.2
78461;SHT31;67755;51.986;5.696;2024-01-27T03:32:49;7.2;60.3
78461;SHT31;67755;51.986;5.696;2024-01-27T03:35:17;7.2;60.3
78461;SHT31;67755;51.986;5.696;2024-01-27T03:37:46;7.1;60.5
78461;SHT31;67755;51.986;5.696;2024-01-27T03:40:15;7.1;60.6
78461;SHT31;67755;51.986;5.696;2024-01-27T03:42:44;7.1;60.4
78461;SHT31;67755;51.986;5.696;2024-01-27T03:45:12;7.1;60.5
78461;SHT31;67755;51.986;5.696;2024-01-27T03:47:41;7.1;60.9
78461;SHT31;67755;51.986;5.696;2024-01-27T03:50:12;7.1;60.8
78461;SHT31;67755;51.986;5.696;2024-01-27T03:52:41;7.0;60.9
78461;SHT31;67755;51.986;5.696;2024-01-27T03:55:11;7.0;60.9
78461;SHT31;67755;51.986;5.696;2024-01-27T03:57:40;7.0;61.0
78461;SHT31;67755;51.986;5.696;2024-01-27T06:23:51;7.4;57.9
78461;SHT31;67755;51.986;5.696;2024-01-27T06:26:20;7.4;58.3
78461;SHT31;67755;51.986;5.696;2024-01-27T06:28:49;7.3;58.0
78461;SHT31;67755;51.986;5.696;2024-01-27T06:31:17;7.3;58.0
78461;SHT31;67755;51.986;5.696;2024-01-27T06:33:46;7.2;58.1
78461;SHT31;67755;51.986;5.696;2024-01-27T06:36:14;7.2;58.1
78461;SHT31;67755;51.986;5.696;2024-01-27T06:38:43;7.2;58.6
78461;SHT31;67755;51.986;5.696;2024-01-27T06:41:11;7.1;58.4
78461;SHT31;67755;51.986;5.696;2024-01-27T06:43:40;7.1;58.7
78461;SHT31;67755;51.986;5.696;2024-01-27T06:46:08;7.0;58.7
78461;SHT31;67755;51.986;5.696;2024-01-27T06:48:37;6.9;58.7
78461;SHT31;67755;51.986;5.696;2024-01-27T06:51:06;6.9;58.8
78461;SHT31;67755;51.986;5.696;2024-01-27T06:53:34;6.9;59.1
78461;SHT31;67755;51.986;5.696;2024-01-27T06:56:03;6.8;59.2
78461;SHT31;67755;51.986;5.696;2024-01-27T06:58:32;6.8;59.5
78461;SHT31;67755;51.986;5.696;2024-01-27T07:01:01;6.7;59.4
78461;SHT31;67755;51.986;5.696;2024-01-27T07:03:29;6.7;59.7
78461;SHT31;67755;51.986;5.696;2024-01-27T07:05:58;6.6;60.2
78461;SHT31;67755;51.986;5.696;2024-01-27T07:08:27;6.6;60.3
78461;SHT31;67755;51.986;5.696;2024-01-27T07:10:56;6.6;60.5
78461;SHT31;67755;51.986;5.696;2024-01-27T07:13:24;6.5;60.4
78461;SHT31;67755;51.986;5.696;2024-01-27T07:15:55;6.5;60.9
78461;SHT31;67755;51.986;5.696;2024-01-27T07:18:24;6.5;61.0
78461;SHT31;67755;51.986;5.696;2024-01-27T07:20:53;6.4;60.9
78461;SHT31;67755;51.986;5.696;2024-01-27T07:23:25;6.4;61.1
78461;SHT31;67755;51.986;5.696;2024-01-27T07:25:54;6.4;61.1
78461;SHT31;67755;51.986;5.696;2024-01-27T07:28:23;6.4;61.2
78461;SHT31;67755;51.986;5.696;2024-01-27T07:30:52;6.3;61.4
78461;SHT31;67755;51.986;5.696;2024-01-27T07:33:20;6.3;61.5
78461;SHT31;67755;51.986;5.696;2024-01-27T07:35:50;6.3;61.5
78461;SHT31;67755;51.986;5.696;2024-01-27T07:38:19;6.3;61.5
78461;SHT31;67755;51.986;5.696;2024-01-27T07:40:47;6.3;61.9
78461;SHT31;67755;51.986;5.696;2024-01-27T07:43:16;6.3;61.6
78461;SHT31;67755;51.986;5.696;2024-01-27T07:45:44;6.3;61.7
78461;SHT31;67755;51.986;5.696;2024-01-27T07:48:15;6.2;61.9
78461;SHT31;67755;51.986;5.696;2024-01-27T07:50:43;6.2;62.0
78461;SHT31;67755;51.986;5.696;2024-01-27T07:53:14;6.2;62.2
78461;SHT31;67755;51.986;5.696;2024-01-27T07:55:45;6.2;62.4
78461;SHT31;67755;51.986;5.696;2024-01-27T07:58:13;6.2;62.3
78461;SHT31;67755;51.986;5.696;2024-01-27T08:00:42;6.2;62.6
78461;SHT31;67755;51.986;5.696;2024-01-27T08:03:10;6.2;63.1
78461;SHT31;67755;51.986;5.696;2024-01-27T08:05:39;6.2;62.9
78461;SHT31;67755;51.986;5.696;2024-01-27T08:08:07;6.2;63.2
78461;SHT31;67755;51.986;5.696;2024-01-27T08:10:36;6.2;63.1
78461;SHT31;67755;51.986;5.696;2024-01-27T08:13:05;6.2;63.4
78461;SHT31;67755;51.986;5.696;2024-01-27T08:15:34;6.2;63.6
78461;SHT31;67755;51.986;5.696;2024-01-27T08:18:03;6.2;63.5
78461;SHT31;67755;51.986;5.696;2024-01-27T08:20:31;6.2;63.9
78461;SHT31;67755;51.986;5.696;2024-01-27T08:23:00;6.2;63.9
78461;SHT31;67755;51.986;5.696;2024-01-27T08:25:29;6.3;64.1
78461;SHT31;67755;51.986;5.696;2024-01-27T08:27:58;6.3;64.4
78461;SHT31;67755;51.986;5.696;2024-01-27T08:30:26;6.3;64.3
78461;SHT31;67755;51.986;5.696;2024-01-27T08:32:54;6.3;64.8
78461;SHT31;67755;51.986;5.696;2024-01-27T08:35:23;6.3;65.0
78461;SHT31;67755;51.986;5.696;2024-01-27T08:37:51;6.3;65.2
78461;SHT31;67755;51.986;5.696;2024-01-27T08:40:22;6.3;65.2
78461;SHT31;67755;51.986;5.696;2024-01-27T08:42:50;6.3;65.4
78461;SHT31;67755;51.986;5.696;2024-01-27T08:45:19;6.3;65.4
78461;SHT31;67755;51.986;5.696;2024-01-27T08:47:47;6.3;65.8
78461;SHT31;67755;51.986;5.696;2024-01-27T08:50:17;6.4;65.7
78461;SHT31;67755;51.986;5.696;2024-01-27T08:52:46;6.4;65.7
78461;SHT31;67755;51.986;5.696;2024-01-27T08:55:15;6.4;65.7
78461;SHT31;67755;51.986;5.696;2024-01-27T08:57:46;6.4;65.7
78461;SHT31;67755;51.986;5.696;2024-01-27T09:00:15;6.4;65.8
78461;SHT31;67755;51.986;5.696;2024-01-27T09:02:45;6.5;66.1
78461;SHT31;67755;51.986;5.696;2024-01-27T09:05:14;6.5;66.0
78461;SHT31;67755;51.986;5.696;2024-01-27T09:07:42;6.5;66.4
78461;SHT31;67755;51.986;5.696;2024-01-27T09:10:11;6.6;66.3
78461;SHT31;67755;51.986;5.696;2024-01-27T09:12:41;6.6;66.7
78461;SHT31;67755;51.986;5.696;2024-01-27T09:15:10;6.7;67.1
78461;SHT31;67755;51.986;5.696;2024-01-27T09:17:39;6.7;67.0
78461;SHT31;67755;51.986;5.696;2024-01-27T09:20:10;6.8;67.3
78461;SHT31;67755;51.986;5.696;2024-01-27T09:22:38;6.8;67.2
78461;SHT31;67755;51.986;5.696;2024-01-27T09:25:08;6.8;67.3
78461;SHT31;67755;51.986;5.696;2024-01-27T09:27:37;6.9;67.4
78461;SHT31;67755;51.986;5.696;2024-01-27T09:30:06;6.9;67.2
78461;SHT31;67755;51.986;5.696;2024-01-27T09:32:35;7.0;66.9
78461;SHT31;67755;51.986;5.696;2024-01-27T13:11:58;10.6;56.1
78461;SHT31;67755;51.986;5.696;2024-01-27T13:14:26;10.6;56.3
78461;SHT31;67755;51.986;5.696;2024-01-27T13:16:55;10.6;56.1
78461;SHT31;67755;51.986;5.696;2024-01-27T13:19:26;10.6;56.3
78461;SHT31;67755;51.986;5.696;2024-01-27T13:21:57;10.6;56.5
78461;SHT31;67755;51.986;5.696;2024-01-27T13:24:25;10.6;56.2
78461;SHT31;67755;51.986;5.696;2024-01-27T13:26:56;10.6;56.5
